This demonstration page uses our WeatherBlox Daily Observations layout. Learn more.

39.92423, -83.80882

Hourly Observations for July 26, 2016

Temp ( °F °C ) Dew Point ( °F °C ) Humidity (%) Winds ( mph kmh ) Pressure ( in mb ) Visibility ( mi km ) Precip ( " mm )
12:56 am 00:56 Clear 76 24.4 71 21.7 85 85 NW 3 6 29.99 1016 10 16.0934 0 0
1:49 am 01:49 Mostly Cloudy 75 24 70 21 83 83 NW 3 6 30 1016 10 16.0934 0 0
1:56 am 01:56 Mostly Cloudy 75 23.9 71 21.7 88 88 W 3 6 30 1016 10 16.0934 0 0
2:15 am 02:15 Partly Cloudy 75 24 70 21 83 83 NW 3 6 30 1016 10 16.0934 0 0
2:56 am 02:56 Mostly Cloudy 75 23.9 70 21.1 84 84 NW 6 9 30 1016 10 16.0934 0 0
3:56 am 03:56 Clear 74 23.3 69 20.6 85 85 NNW 5 7 30 1016 10 16.0934 0 0
4:53 am 04:53 Mostly Cloudy 73 23 66 19 78 78 N 7 11 30 1016 10 16.0934 0 0
4:56 am 04:56 Mostly Cloudy 74 23.3 67 19.4 79 79 NNE 7 11 30 1016 10 16.0934 0 0
5:04 am 05:04 Mostly Cloudy 73 23 66 19 78 78 N 3 6 30 1016 10 16.0934 0 0
5:56 am 05:56 Mostly Cloudy 73 22.8 67 19.4 81 81 N 3 6 30.02 1017 10 16.0934 0 0
6:56 am 06:56 Partly Cloudy 72 22.2 67 19.4 84 84 NNW 3 6 30.04 1017 10 16.0934 0 0
7:56 am 07:56 Sunny 73 22.8 68 20 84 84 Calm 30.04 1017 10 16.0934 0 0
8:56 am 08:56 Sunny 76 24.4 66 18.9 72 72 ENE 7 11 30.04 1017 10 16.0934 0 0
9:56 am 09:56 Mostly Sunny 79 26.1 67 19.4 67 67 E 6 9 30.04 1017 10 16.0934 0 0
10:56 am 10:56 Cloudy 80 26.7 69 20.6 69 69 SE 3 6 30.05 1018 10 16.0934 0 0
11:56 am 11:56 Mostly Sunny 81 27.2 69 20.6 67 67 S 3 6 30.05 1018 10 16.0934 0 0
12:56 pm 12:56 Mostly Sunny 82 27.8 68 20 63 63 Calm 30.04 1017 10 16.0934 0 0
1:56 pm 13:56 Mostly Cloudy 81 27.2 70 21.1 69 69 undefined N/A 30.03 1017 10 16.0934 0 0
2:56 pm 14:56 Sunny 80 26.7 71 21.7 74 74 SW 5 7 30.02 1017 10 16.0934 0 0
3:56 pm 15:56 Mostly Sunny 79 26.1 72 22.2 79 79 S 6 9 30.01 1016 10 16.0934 0 0
4:56 pm 16:56 Mostly Cloudy with Light Rain 80 26.7 73 22.8 79 79 WSW 6 9 30 1016 10 16.0934 0 0.0254
5:56 pm 17:56 Sunny 81 27.2 70 21.1 69 69 W 3 6 29.99 1016 10 16.0934 0 0.0254
6:56 pm 18:56 Sunny 80 26.7 71 21.7 74 74 Calm 29.99 1016 10 16.0934 0 0
7:56 pm 19:56 Sunny 80 26.7 71 21.7 74 74 undefined N/A 29.99 1016 10 16.0934 0 0
8:56 pm 20:56 Mostly Clear 78 25.6 70 21.1 76 76 Calm 30 1016 10 16.0934 0 0
9:56 pm 21:56 Cloudy 75 23.9 71 21.7 88 88 Calm 30.01 1016 10 16.0934 0 0
10:56 pm 22:56 Mostly Clear 74 23.3 71 21.7 91 91 Calm 30.01 1016 10 16.0934 0 0
11:56 pm 23:56 Mostly Cloudy 72 22.2 70 21.1 94 94 Calm 30.01 1016 10 16.0934 0 0

Powered by AerisWeather